createdAt,value
2023-04-08T00:00:29.716Z,5.40
2023-04-08T00:02:56.572Z,5.50
2023-04-08T00:05:23.730Z,5.40
2023-04-08T00:07:50.616Z,5.40
2023-04-08T00:10:17.396Z,5.40
2023-04-08T00:12:44.410Z,5.30
2023-04-08T00:15:11.279Z,5.20
2023-04-08T00:17:38.097Z,5.10
2023-04-08T00:20:05.928Z,5.40
2023-04-08T00:22:32.836Z,5.50
2023-04-08T00:24:59.806Z,5.50
2023-04-08T00:27:26.691Z,5.40
2023-04-08T00:29:54.086Z,5.10
2023-04-08T00:32:20.920Z,4.90
2023-04-08T00:34:48.431Z,5.00
2023-04-08T00:37:16.080Z,5.20
2023-04-08T00:39:43.046Z,5.00
2023-04-08T00:42:10.125Z,5.00
2023-04-08T00:44:39.273Z,5.10
2023-04-08T00:47:06.380Z,5.30
2023-04-08T00:49:33.272Z,5.30
2023-04-08T00:52:00.758Z,5.40
2023-04-08T00:54:27.643Z,5.30
2023-04-08T00:56:54.578Z,5.20
2023-04-08T00:59:21.626Z,5.20
2023-04-08T01:01:54.343Z,5.10
2023-04-08T01:04:36.540Z,5.00
2023-04-08T01:07:19.213Z,5.30
2023-04-08T01:09:54.316Z,5.20
2023-04-08T01:12:31.023Z,5.30
2023-04-08T01:15:05.057Z,5.20
2023-04-08T01:17:32.920Z,5.20
2023-04-08T01:20:03.152Z,5.20
2023-04-08T01:23:01.444Z,5.20
2023-04-08T01:25:32.845Z,5.30
2023-04-08T01:28:21.229Z,5.20
2023-04-08T01:30:50.114Z,5.20
2023-04-08T01:33:19.763Z,5.20
2023-04-08T01:35:47.217Z,5.20
2023-04-08T01:38:18.501Z,5.10
2023-04-08T01:40:49.631Z,5.20
2023-04-08T01:43:18.846Z,5.10
2023-04-08T01:45:48.051Z,5.00
2023-04-08T01:48:15.781Z,4.90
2023-04-08T01:50:44.350Z,4.90
2023-04-08T01:53:13.367Z,4.70
2023-04-08T01:55:42.142Z,4.90
2023-04-08T01:58:12.210Z,4.90
2023-04-08T02:00:43.296Z,5.00
2023-04-08T02:03:17.633Z,4.90
2023-04-08T02:05:46.565Z,4.90
2023-04-08T02:08:13.625Z,4.80
2023-04-08T02:10:40.943Z,4.50
2023-04-08T02:13:08.238Z,4.40
2023-04-08T02:15:40.870Z,4.60
2023-04-08T02:18:15.719Z,4.60
2023-04-08T02:20:53.873Z,4.50
2023-04-08T02:23:24.406Z,4.50
2023-04-08T02:25:55.590Z,4.60
2023-04-08T02:28:28.866Z,4.50
2023-04-08T02:30:57.426Z,4.50
2023-04-08T02:33:25.866Z,4.50
2023-04-08T02:35:55.054Z,4.50
2023-04-08T02:38:24.302Z,4.50
2023-04-08T02:40:51.936Z,4.60
2023-04-08T02:43:18.847Z,4.50
2023-04-08T02:45:46.530Z,4.60
2023-04-08T02:48:15.240Z,4.70
2023-04-08T02:50:42.132Z,4.60
2023-04-08T02:53:09.739Z,4.50
2023-04-08T02:55:40.700Z,4.50
2023-04-08T02:58:07.672Z,4.50
2023-04-08T03:00:34.493Z,4.50
2023-04-08T03:03:02.087Z,4.50
2023-04-08T03:05:29.073Z,4.40
2023-04-08T03:07:56.645Z,4.30
2023-04-08T03:10:23.482Z,4.30
2023-04-08T03:12:50.428Z,4.10
2023-04-08T03:15:17.502Z,4.10
2023-04-08T03:17:44.695Z,4.20
2023-04-08T03:20:11.884Z,4.40
2023-04-08T03:22:39.606Z,4.40
2023-04-08T03:25:06.760Z,4.40
2023-04-08T03:27:34.068Z,4.50
2023-04-08T03:30:02.127Z,4.50
2023-04-08T03:32:29.184Z,4.60
2023-04-08T03:34:56.703Z,4.50
2023-04-08T03:37:23.535Z,4.50
2023-04-08T03:39:50.468Z,4.40
2023-04-08T03:42:18.414Z,4.50
2023-04-08T03:44:45.350Z,4.40
2023-04-08T03:47:12.222Z,4.40
2023-04-08T03:49:39.134Z,4.50
2023-04-08T03:52:06.318Z,4.50
2023-04-08T03:54:33.858Z,4.50
2023-04-08T03:57:01.228Z,4.40
2023-04-08T03:59:28.132Z,4.30
2023-04-08T04:01:55.289Z,4.30
2023-04-08T04:04:22.371Z,4.40
2023-04-08T04:06:49.957Z,4.40
2023-04-08T04:09:17.691Z,4.30
2023-04-08T04:11:44.643Z,4.30
2023-04-08T04:14:11.619Z,4.30
2023-04-08T04:16:39.203Z,4.30
2023-04-08T04:19:06.296Z,4.30
2023-04-08T04:21:33.179Z,4.40
2023-04-08T04:24:00.025Z,4.40
2023-04-08T04:29:08.036Z,4.20
2023-04-08T04:31:34.965Z,4.10
2023-04-08T04:34:03.814Z,4.10
2023-04-08T04:36:32.210Z,4.10
2023-04-08T04:38:59.107Z,4.20
2023-04-08T04:41:27.384Z,4.30
2023-04-08T04:43:54.791Z,4.20
2023-04-08T04:46:22.365Z,4.10
2023-04-08T04:48:49.744Z,4.30
2023-04-08T04:51:16.971Z,4.20
2023-04-08T04:53:44.000Z,4.20
2023-04-08T04:56:11.301Z,4.00
2023-04-08T04:58:50.640Z,4.10
2023-04-08T05:01:17.672Z,4.20
2023-04-08T05:03:44.710Z,4.20
2023-04-08T05:06:11.871Z,4.10
2023-04-08T05:08:39.670Z,4.10
2023-04-08T05:11:10.378Z,4.30
2023-04-08T05:13:37.418Z,4.20
2023-04-08T05:16:04.566Z,4.20
2023-04-08T05:18:33.663Z,4.30
2023-04-08T05:21:00.691Z,4.30
2023-04-08T05:23:28.399Z,4.30
2023-04-08T05:25:55.422Z,4.20
2023-04-08T05:28:22.786Z,4.30
2023-04-08T05:30:53.680Z,4.20
2023-04-08T05:33:20.785Z,4.40
2023-04-08T05:35:47.983Z,4.30
2023-04-08T05:38:14.992Z,4.30
2023-04-08T05:40:41.902Z,4.30
2023-04-08T05:43:08.828Z,4.30
2023-04-08T05:45:35.781Z,4.40
2023-04-08T05:48:02.719Z,4.50
2023-04-08T05:50:30.766Z,4.50
2023-04-08T05:52:57.731Z,4.50
2023-04-08T05:55:25.485Z,4.50
2023-04-08T05:57:52.455Z,4.50
2023-04-08T06:00:20.889Z,4.60
2023-04-08T06:02:47.890Z,4.70
2023-04-08T06:05:14.811Z,4.70
2023-04-08T06:07:41.877Z,4.70
2023-04-08T06:10:09.361Z,4.80
2023-04-08T06:12:41.475Z,4.90
2023-04-08T06:15:09.648Z,4.90
2023-04-08T06:17:37.814Z,5.00
2023-04-08T06:20:12.591Z,5.00
2023-04-08T06:22:39.390Z,5.00
2023-04-08T06:25:07.243Z,5.10
2023-04-08T06:28:41.741Z,5.10
2023-04-08T06:31:09.532Z,5.20
2023-04-08T06:33:36.266Z,5.20
2023-04-08T06:36:05.018Z,5.30
2023-04-08T06:38:32.458Z,5.30
2023-04-08T06:41:17.349Z,5.30
2023-04-08T06:43:44.044Z,5.40
2023-04-08T06:46:11.265Z,5.40
2023-04-08T06:48:39.062Z,5.40
2023-04-08T06:51:07.691Z,5.40
2023-04-08T06:53:34.440Z,5.40
2023-04-08T06:56:01.381Z,5.50
2023-04-08T06:58:28.209Z,5.60
2023-04-08T07:00:57.775Z,5.70
2023-04-08T07:03:24.789Z,5.70
2023-04-08T07:05:52.504Z,5.80
2023-04-08T07:08:19.541Z,5.60
2023-04-08T07:10:46.651Z,5.70
2023-04-08T07:13:13.957Z,5.80
2023-04-08T07:15:41.412Z,5.90
2023-04-08T07:18:08.105Z,5.90
2023-04-08T07:20:38.264Z,5.90
2023-04-08T07:23:05.171Z,5.90
2023-04-08T07:25:34.745Z,6.10
2023-04-08T07:28:01.685Z,6.00
2023-04-08T07:30:28.623Z,6.10
2023-04-08T07:32:56.584Z,6.00
2023-04-08T07:35:25.313Z,6.20
2023-04-08T07:37:53.112Z,6.20
2023-04-08T07:40:20.786Z,6.30
2023-04-08T07:42:47.660Z,6.30
2023-04-08T07:45:14.332Z,6.30
2023-04-08T07:47:41.328Z,6.20
2023-04-08T07:50:08.385Z,6.40
2023-04-08T07:52:35.082Z,6.40
2023-04-08T07:55:02.102Z,6.40
2023-04-08T07:57:29.141Z,6.40
2023-04-08T07:59:56.289Z,6.30
2023-04-08T08:02:23.377Z,6.30
2023-04-08T08:04:50.670Z,6.40
2023-04-08T08:07:17.438Z,6.50
2023-04-08T08:09:44.209Z,6.50
2023-04-08T08:12:11.748Z,7.50
2023-04-08T08:14:38.838Z,8.30
2023-04-08T08:17:05.546Z,8.90
2023-04-08T08:19:32.250Z,8.80
2023-04-08T08:21:59.029Z,8.20
2023-04-08T08:24:26.046Z,8.30
2023-04-08T08:26:52.904Z,8.00
2023-04-08T08:29:19.637Z,8.00
2023-04-08T08:31:48.457Z,8.30
2023-04-08T08:34:15.668Z,8.10
2023-04-08T08:36:42.393Z,8.20
2023-04-08T08:39:09.187Z,7.90
2023-04-08T08:41:38.632Z,7.90
2023-04-08T08:44:09.997Z,8.10
2023-04-08T08:46:36.752Z,7.70
2023-04-08T08:49:03.520Z,7.60
2023-04-08T08:51:32.841Z,7.60
2023-04-08T08:54:02.981Z,7.50
2023-04-08T08:56:29.879Z,7.50
2023-04-08T08:58:56.581Z,7.60
2023-04-08T09:01:37.567Z,7.50
2023-04-08T09:04:07.688Z,7.60
2023-04-08T09:06:34.545Z,7.60
2023-04-08T09:09:02.741Z,7.60
2023-04-08T09:11:29.444Z,7.60
2023-04-08T09:13:57.700Z,7.60
2023-04-08T09:16:24.607Z,7.70
2023-04-08T09:18:52.305Z,7.70
2023-04-08T09:21:23.956Z,7.80
2023-04-08T09:23:52.584Z,7.80
2023-04-08T09:26:24.788Z,7.80
2023-04-08T09:29:24.074Z,7.90
2023-04-08T09:31:56.876Z,8.00
2023-04-08T09:34:24.702Z,8.10
2023-04-08T09:36:53.002Z,8.20
2023-04-08T09:39:20.469Z,8.30
2023-04-08T09:41:52.399Z,8.50
2023-04-08T09:44:21.652Z,8.50
2023-04-08T09:46:52.632Z,8.60
2023-04-08T09:49:38.258Z,8.80
2023-04-08T09:52:24.301Z,9.10
2023-04-08T09:54:54.176Z,9.30
2023-04-08T09:57:28.679Z,9.40
2023-04-08T10:00:08.229Z,9.40
2023-04-08T10:02:58.767Z,9.50
2023-04-08T10:05:27.246Z,9.70
2023-04-08T10:07:56.295Z,9.60
2023-04-08T10:10:23.683Z,9.40
2023-04-08T10:12:51.275Z,9.50
2023-04-08T10:15:28.921Z,9.60
2023-04-08T10:18:20.332Z,9.70
2023-04-08T10:20:48.012Z,9.70
2023-04-08T10:23:19.128Z,10.10
2023-04-08T10:25:49.899Z,10.70
2023-04-08T10:28:18.059Z,10.70
2023-04-08T10:30:49.020Z,10.30
2023-04-08T10:33:31.117Z,10.30
2023-04-08T10:36:07.501Z,10.30
2023-04-08T10:38:34.388Z,10.40
2023-04-08T10:41:01.130Z,10.30
2023-04-08T10:43:32.882Z,10.30
2023-04-08T10:46:00.192Z,10.30
2023-04-08T10:48:29.142Z,10.30
2023-04-08T10:51:00.672Z,10.30
2023-04-08T10:53:33.390Z,10.30
2023-04-08T10:56:15.539Z,10.50
2023-04-08T10:58:54.323Z,10.40
2023-04-08T11:01:21.373Z,10.30
2023-04-08T11:03:49.348Z,10.00
2023-04-08T11:06:17.523Z,10.00
2023-04-08T11:08:44.877Z,10.10
2023-04-08T11:11:12.003Z,10.10
2023-04-08T11:13:52.567Z,10.20
2023-04-08T11:16:22.730Z,10.30
2023-04-08T11:18:53.939Z,10.30
2023-04-08T11:21:22.447Z,10.30
2023-04-08T11:23:54.044Z,10.20
2023-04-08T11:26:21.529Z,10.30
2023-04-08T11:28:52.250Z,10.30
2023-04-08T11:31:23.559Z,10.30
2023-04-08T11:33:54.376Z,10.30
2023-04-08T11:36:21.876Z,10.30
2023-04-08T11:38:48.965Z,10.30
2023-04-08T11:41:16.724Z,10.40
2023-04-08T11:44:01.766Z,10.50
2023-04-08T11:46:28.720Z,10.60
2023-04-08T11:49:06.919Z,10.60
2023-04-08T11:51:35.786Z,10.60
2023-04-08T11:54:07.618Z,10.50
2023-04-08T11:56:46.460Z,10.60
2023-04-08T11:59:13.177Z,10.60
2023-04-08T12:01:40.164Z,10.60
2023-04-08T12:04:10.421Z,10.60
2023-04-08T12:06:37.511Z,10.60
2023-04-08T12:09:04.351Z,10.60
2023-04-08T12:11:31.352Z,10.50
2023-04-08T12:13:58.070Z,10.50
2023-04-08T12:16:24.866Z,10.40
2023-04-08T12:18:51.619Z,10.50
2023-04-08T12:21:18.326Z,10.60
2023-04-08T12:23:45.185Z,10.40
2023-04-08T12:26:13.187Z,10.50
2023-04-08T12:28:39.890Z,10.50
2023-04-08T12:31:06.626Z,10.40
2023-04-08T12:33:33.383Z,10.40
2023-04-08T12:36:00.194Z,10.60
2023-04-08T12:38:27.269Z,10.70
2023-04-08T12:40:55.275Z,10.60
2023-04-08T12:43:23.765Z,10.70
2023-04-08T12:45:51.151Z,10.60
2023-04-08T12:48:18.012Z,10.60
2023-04-08T12:50:44.881Z,10.60
2023-04-08T12:53:11.772Z,10.60
2023-04-08T12:55:38.470Z,10.60
2023-04-08T12:58:06.063Z,10.50
2023-04-08T13:00:33.026Z,10.60
2023-04-08T13:02:59.860Z,10.60
2023-04-08T13:05:42.159Z,10.70
2023-04-08T13:08:11.332Z,10.70
2023-04-08T13:10:38.586Z,10.70
2023-04-08T13:13:05.694Z,10.70
2023-04-08T13:15:32.421Z,10.80
2023-04-08T13:17:59.609Z,10.80
2023-04-08T13:20:26.820Z,10.90
2023-04-08T13:22:53.707Z,11.00
2023-04-08T13:25:20.894Z,11.20
2023-04-08T13:27:47.896Z,11.30
2023-04-08T13:30:14.789Z,11.40
2023-04-08T13:32:41.605Z,11.30
2023-04-08T13:35:08.773Z,11.30
2023-04-08T13:37:35.644Z,11.30
2023-04-08T13:40:02.465Z,11.20
2023-04-08T13:42:31.421Z,11.10
2023-04-08T13:44:58.740Z,11.10
2023-04-08T13:47:27.003Z,11.10
2023-04-08T13:49:53.894Z,11.10
2023-04-08T13:52:20.593Z,11.10
2023-04-08T13:54:47.834Z,11.00
2023-04-08T13:57:14.796Z,11.00
2023-04-08T13:59:43.221Z,11.00
2023-04-08T14:02:11.208Z,10.90
2023-04-08T14:04:38.134Z,11.10
2023-04-08T14:07:05.020Z,11.00
2023-04-08T14:09:32.005Z,11.00
2023-04-08T14:11:58.911Z,11.00
2023-04-08T14:14:26.171Z,11.10
2023-04-08T14:16:52.909Z,11.10
2023-04-08T14:19:19.650Z,11.10
2023-04-08T14:21:46.606Z,11.10
2023-04-08T14:24:13.387Z,11.10
2023-04-08T14:26:40.867Z,11.10
2023-04-08T14:29:08.295Z,11.10
2023-04-08T14:31:36.227Z,11.10
2023-04-08T14:34:03.161Z,11.10
2023-04-08T14:36:31.348Z,11.10
2023-04-08T14:38:58.188Z,11.10
2023-04-08T14:41:27.139Z,11.10
2023-04-08T14:43:53.935Z,11.20
2023-04-08T14:46:21.371Z,11.10
2023-04-08T14:48:48.735Z,11.10
2023-04-08T14:51:15.565Z,11.10
2023-04-08T14:53:42.287Z,11.10
2023-04-08T14:56:09.446Z,11.20
2023-04-08T14:58:36.247Z,11.20
2023-04-08T15:01:03.254Z,11.10
2023-04-08T15:03:30.710Z,11.10
2023-04-08T15:05:58.428Z,11.20
2023-04-08T15:08:25.196Z,11.10
2023-04-08T15:10:52.171Z,11.20
2023-04-08T15:13:18.894Z,11.10
2023-04-08T15:15:45.978Z,11.20
2023-04-08T15:18:12.755Z,11.10
2023-04-08T15:20:39.500Z,11.10
2023-04-08T15:23:06.215Z,11.10
2023-04-08T15:25:33.026Z,11.20
2023-04-08T15:27:59.792Z,11.00
2023-04-08T15:30:27.569Z,10.80
2023-04-08T15:32:56.963Z,10.90
2023-04-08T15:35:24.210Z,10.80
2023-04-08T15:37:50.919Z,10.80
2023-04-08T15:40:17.843Z,10.90
2023-04-08T15:42:44.694Z,10.90
2023-04-08T15:45:12.252Z,10.80
2023-04-08T15:47:38.946Z,10.80
2023-04-08T15:50:06.485Z,10.90
2023-04-08T15:52:35.056Z,11.00
2023-04-08T15:55:02.791Z,11.00
2023-04-08T15:57:30.996Z,11.00
2023-04-08T15:59:57.730Z,11.00
2023-04-08T16:02:24.591Z,11.10
2023-04-08T16:04:51.550Z,11.10
2023-04-08T16:07:18.290Z,11.20
2023-04-08T16:09:44.996Z,11.20
2023-04-08T16:12:11.862Z,11.20
2023-04-08T16:14:38.701Z,11.10
2023-04-08T16:17:06.309Z,11.20
2023-04-08T16:19:33.492Z,11.20
2023-04-08T16:22:00.418Z,11.20
2023-04-08T16:24:27.296Z,11.30
2023-04-08T16:26:54.031Z,11.20
2023-04-08T16:29:22.834Z,11.20
2023-04-08T16:31:50.390Z,11.20
2023-04-08T16:34:19.145Z,11.10
2023-04-08T16:36:45.873Z,11.00
2023-04-08T16:39:13.429Z,11.00
2023-04-08T16:41:40.315Z,10.90
2023-04-08T16:44:07.016Z,10.80
2023-04-08T16:46:34.138Z,10.80
2023-04-08T16:49:01.248Z,10.80
2023-04-08T16:51:28.442Z,10.80
2023-04-08T16:53:58.417Z,10.80
2023-04-08T16:56:26.102Z,10.80
2023-04-08T16:58:53.024Z,10.60
2023-04-08T17:01:20.405Z,10.50
2023-04-08T17:03:48.684Z,10.50
2023-04-08T17:06:15.949Z,10.60
2023-04-08T17:08:43.523Z,10.60
2023-04-08T17:11:13.173Z,10.60
2023-04-08T17:13:41.880Z,10.60
2023-04-08T17:16:13.712Z,10.50
2023-04-08T17:18:40.961Z,10.40
2023-04-08T17:21:08.219Z,10.30
2023-04-08T17:23:35.230Z,10.20
2023-04-08T17:26:09.507Z,10.20
2023-04-08T17:28:36.436Z,10.20
2023-04-08T17:31:03.334Z,10.10
2023-04-08T17:33:30.580Z,10.20
2023-04-08T17:35:57.601Z,10.10
2023-04-08T17:38:24.363Z,10.00
2023-04-08T17:40:51.822Z,10.00
2023-04-08T17:43:18.637Z,10.00
2023-04-08T17:45:45.560Z,10.00
2023-04-08T17:48:12.280Z,9.90
2023-04-08T17:50:38.968Z,10.10
2023-04-08T17:53:05.801Z,10.10
2023-04-08T17:55:33.179Z,10.00
2023-04-08T17:58:00.074Z,10.10
2023-04-08T18:00:27.517Z,10.00
2023-04-08T18:02:54.486Z,10.10
2023-04-08T18:05:21.834Z,10.00
2023-04-08T18:07:48.619Z,9.90
2023-04-08T18:10:15.421Z,9.80
2023-04-08T18:12:42.219Z,9.60
2023-04-08T18:15:09.293Z,9.80
2023-04-08T18:17:36.552Z,9.80
2023-04-08T18:20:03.437Z,9.70
2023-04-08T18:22:30.114Z,9.90
2023-04-08T18:24:56.785Z,9.80
2023-04-08T18:27:23.495Z,9.80
2023-04-08T18:29:53.351Z,9.70
2023-04-08T18:32:20.216Z,9.60
2023-04-08T18:34:47.023Z,9.60
2023-04-08T18:37:16.866Z,9.60
2023-04-08T18:39:43.769Z,9.40
2023-04-08T18:42:10.587Z,9.30
2023-04-08T18:44:37.907Z,9.30
2023-04-08T18:47:04.720Z,9.10
2023-04-08T18:49:33.939Z,9.10
2023-04-08T18:52:02.986Z,9.10
2023-04-08T18:54:31.008Z,8.90
2023-04-08T18:56:58.376Z,8.90
2023-04-08T18:59:27.747Z,8.90
2023-04-08T19:01:55.029Z,8.80
2023-04-08T19:04:22.784Z,8.60
2023-04-08T19:06:49.645Z,8.50
2023-04-08T19:09:16.737Z,8.50
2023-04-08T19:11:43.405Z,8.30
2023-04-08T19:14:10.292Z,8.40
2023-04-08T19:16:38.344Z,8.50
2023-04-08T19:19:06.982Z,8.20
2023-04-08T19:21:37.586Z,8.20
2023-04-08T19:24:06.126Z,8.20
2023-04-08T19:26:33.779Z,8.30
2023-04-08T19:29:01.054Z,8.10
2023-04-08T19:31:28.457Z,8.10
2023-04-08T19:33:55.873Z,8.20
2023-04-08T19:36:22.854Z,8.10
2023-04-08T19:38:49.556Z,8.10
2023-04-08T19:41:16.637Z,8.10
2023-04-08T19:43:43.431Z,8.10
2023-04-08T19:46:10.173Z,8.00
2023-04-08T19:48:36.912Z,8.00
2023-04-08T19:51:03.743Z,7.80
2023-04-08T19:53:30.778Z,7.60
2023-04-08T19:56:02.137Z,7.60
2023-04-08T19:58:29.364Z,7.70
2023-04-08T20:00:56.448Z,7.40
2023-04-08T20:03:23.398Z,7.40
2023-04-08T20:05:50.546Z,7.40
2023-04-08T20:08:17.421Z,7.40
2023-04-08T20:10:44.116Z,7.20
2023-04-08T20:13:11.064Z,7.10
2023-04-08T20:15:37.774Z,7.00
2023-04-08T20:18:04.616Z,6.90
2023-04-08T20:20:31.379Z,7.00
2023-04-08T20:22:58.139Z,6.90
2023-04-08T20:25:24.923Z,6.90
2023-04-08T20:27:52.228Z,6.80
2023-04-08T20:30:18.966Z,6.80
2023-04-08T20:32:45.732Z,6.70
2023-04-08T20:35:13.364Z,6.60
2023-04-08T20:37:40.161Z,6.50
2023-04-08T20:40:09.284Z,6.40
2023-04-08T20:42:36.581Z,6.40
2023-04-08T20:45:03.907Z,6.50
2023-04-08T20:47:30.655Z,6.30
2023-04-08T20:49:57.787Z,6.20
2023-04-08T20:52:24.568Z,6.10
2023-04-08T20:54:51.442Z,6.20
2023-04-08T20:57:18.129Z,6.20
2023-04-08T20:59:44.859Z,5.90
2023-04-08T21:02:11.694Z,5.90
2023-04-08T21:04:38.434Z,6.00
2023-04-08T21:07:05.332Z,6.00
2023-04-08T21:09:32.073Z,5.90
2023-04-08T21:11:58.972Z,5.90
2023-04-08T21:14:25.710Z,5.70
2023-04-08T21:16:52.487Z,5.70
2023-04-08T21:19:19.184Z,5.70
2023-04-08T21:21:46.630Z,5.80
2023-04-08T21:24:13.355Z,5.60
2023-04-08T21:26:40.512Z,5.60
2023-04-08T21:29:07.239Z,5.70
2023-04-08T21:31:34.769Z,5.90
2023-04-08T21:34:01.669Z,5.70
2023-04-08T21:36:28.383Z,5.90
2023-04-08T21:38:56.138Z,5.80
2023-04-08T21:41:24.185Z,5.90
2023-04-08T21:43:51.121Z,5.80
2023-04-08T21:46:18.080Z,5.80
2023-04-08T21:48:44.835Z,5.80
2023-04-08T21:51:18.158Z,5.90
2023-04-08T21:53:45.540Z,5.90
2023-04-08T21:56:14.046Z,6.00
2023-04-08T21:58:41.088Z,5.80
2023-04-08T22:01:08.082Z,5.90
2023-04-08T22:03:34.977Z,5.80
2023-04-08T22:06:01.874Z,5.90
2023-04-08T22:08:28.675Z,6.00
2023-04-08T22:10:55.863Z,6.10
2023-04-08T22:13:22.551Z,6.10
2023-04-08T22:15:49.278Z,6.10
2023-04-08T22:18:16.183Z,6.10
2023-04-08T22:20:42.846Z,6.10
2023-04-08T22:23:09.545Z,6.00
2023-04-08T22:25:36.286Z,5.90
2023-04-08T22:28:02.967Z,6.00
2023-04-08T22:30:30.644Z,6.00
2023-04-08T22:32:57.439Z,5.90
2023-04-08T22:35:24.174Z,5.90
2023-04-08T22:37:50.937Z,5.90
2023-04-08T22:40:18.067Z,5.90
2023-04-08T22:42:44.765Z,6.00
2023-04-08T22:45:11.490Z,6.00
2023-04-08T22:47:38.320Z,5.80
2023-04-08T22:50:06.607Z,5.90
2023-04-08T22:52:33.297Z,6.10
2023-04-08T22:55:00.034Z,6.00
2023-04-08T22:57:26.801Z,6.00
2023-04-08T22:59:53.484Z,6.10
2023-04-08T23:02:20.402Z,6.10
2023-04-08T23:04:47.125Z,6.00
2023-04-08T23:07:13.762Z,6.10
2023-04-08T23:09:40.625Z,6.20
2023-04-08T23:12:07.399Z,6.20
2023-04-08T23:14:34.068Z,6.10
2023-04-08T23:17:01.296Z,6.10
2023-04-08T23:19:28.392Z,6.10
2023-04-08T23:21:55.133Z,6.10
2023-04-08T23:24:21.852Z,6.10
2023-04-08T23:26:49.072Z,6.10
2023-04-08T23:29:15.988Z,6.10
2023-04-08T23:31:42.947Z,6.10
2023-04-08T23:34:09.761Z,6.00
2023-04-08T23:36:36.468Z,6.10
2023-04-08T23:39:03.508Z,6.10
2023-04-08T23:41:30.282Z,6.20
2023-04-08T23:43:57.024Z,6.20
2023-04-08T23:46:23.693Z,6.10
2023-04-08T23:48:50.884Z,6.10
2023-04-08T23:51:17.723Z,6.10
2023-04-08T23:53:44.391Z,6.10
2023-04-08T23:56:11.096Z,6.10
2023-04-08T23:58:38.173Z,5.90
